Flight Number: EUR3036 Duration: 11:00
Departure: Helsinki Vantaa (EFHK) at 08:00 Distance: 4494 Nm
Arrival: Miami Int'l (KMIA) at 19:00 Equipment: A340

Weather Information
Helsinki-Vantaa, Finland (EFHK) 60-19N 024-58E 56M Nov 18, 2017 - 06:50 AM EST / 2017.11.18 1150 UTC
Wind: from the SSW (200 degrees) at 8 MPH (7 KT):0
Visibility: greater than 7 mile(s):0
Sky conditions: mostly cloudy Weather: light rain showers; Cumulonimbus clouds observed Temperature: 41 F (5 C) Dew Point: 39 F (4 C) Relative Humidity: 93% Pressure (altimeter): 29.47 in. Hg (0998 hPa)
ob: EFHK 181150Z 20007KT 9999 -SHRA FEW013 BKN015 BKN020CB 05/04 Q0998 TEMPO 7000 SHRA BKN013 BKN020CB cycle: 12
Sunrise: 06:35 Sunset: 13:35 (UTC)

MIAMI INTERNATIONAL AIRPORT , FL, United States (KMIA) 25-47N 080-19W 8M Nov 18, 2017 - 06:53 AM EST / 2017.11.18 1153 UTC
Wind: Calm:0
Visibility: 10 mile(s):0
Sky conditions: mostly clear Temperature: 66.9 F (19.4 C) Dew Point: 60.1 F (15.6 C) Relative Humidity: 78% Pressure (altimeter): 30 in. Hg (1015 hPa) Pressure tendency: 0.02 inches (0.8 hPa) higher than three hours ago
ob: KMIA 181153Z 00000KT 10SM FEW040 19/16 A3000 RMK AO2 SLP157 T01940156 10217 20189 53008 cycle: 12
Sunrise: 11:44 Sunset: 22:28 (UTC)

TAF:2017/11/18 12:34 TAF KMIA 181131Z 1812/1918 VRB03KT P6SM FEW050 FM181500 09008KT P6SM SCT040 FM190300 VRB03KT P6SM FEW030 FM191500 28008KT P6SM SKC

This route has never been flown.

Route map